Delhi, MN

4:09 PM CST on February 10, 2016 (GMT -0600)
Beaver Falls TWP | | Change Station
CLOSE
Current Station
Personal Weather Station
Location: Morton, MN
Elevation: 1007 ft
Nearby Weather Stations

Elev 1007 ft 44.58 °N, 95.04 °W | Updated 2 minutes ago

Overcast
Overcast
16.3 °F
Feels Like 16 °F
N
1.9
Wind Variable Wind from NE
Gusts 2.5 mph

Today
High -- | Low -- °F
--% Chance of Precip.
Yesterday
High -- | Low -- °F
Precip. -- in
Pressure 30.18 in
Visibility 10.0 miles
Clouds Overcast 8500 ft
Windchill 16 °F
Dew Point 3 °F
Humidity 63%
Rainfall 0.00 in
Snow Depth Not available.
7:28 AM 5:41 PM
Waxing Crescent, 7% visible
METAR KRWF 102153Z AUTO 08006KT 10SM OVC085 M10/M17 A3011 RMK AO2 SLP218 T11001167
Pressure 30.18 in
Visibility 10.0 miles
Clouds Overcast 8500 ft
Windchill 16 °F
Dew Point 3 °F
Humidity 63%
Rainfall 0.00 in
Snow Depth Not available.
7:28 AM 5:41 PM
Waxing Crescent, 7% visible
METAR KRWF 102153Z AUTO 08006KT 10SM OVC085 M10/M17 A3011 RMK AO2 SLP218 T11001167

10-Day Weather Forecast

Almanac

Astronomy

Feb. 10, 2016 Rise Set
Actual Time
Civil Twilight
Nautical Twilight
Astronomical Twilight
Moon
Length of Visible Light
Length of Day
Tomorrow will be .
, % of the Moon is Illuminated

Today's Extremes

State Highs State Lows

Community

WunderPhotos

Upload Photos

1,891,959 photos uploaded!

WunderBlog® & News

Nearby

Air Quality

  Air Quality AQ Index Pollutant
Not available.

Snow Depth

Station Depth Elevation

Earthquake Activity

City Distance Mag. Time & Date
Minimum magnitude displayed is 2.5.

Coastal Water Temperatures

Place Temperature

Stations

Nearby Weather Stations

Station Location Temp. Windchill Dew Point Humidity Wind Precip. Elev Updated Type
                   

Watches & Warnings

There are currently no watches in effect.